Time;durP1;ratioP1;P1;durP2;ratioP2;P2;SDS_P1;SDS_P2;PMS_P1;PMS_P2;Temp;Humidity;BMP_temperature;BMP_pressure;BME280_temperature;BME280_humidity;BME280_pressure;Samples;Min_cycle;Max_cycle;Signal;HPM_P1;HPM_P2
2022/12/07 00:00:54;;;;;;;16.65;10.82;;;6.60;99.90;;;;;;5102865;28;20661;-79
2022/12/07 00:03:30;;;;;;;13.00;10.38;;;6.60;99.90;;;;;;5103045;28;20536;-79
2022/12/07 00:06:00;;;;;;;13.23;9.18;;;6.60;99.90;;;;;;5102778;28;20566;-77
2022/12/07 00:08:33;;;;;;;13.38;10.30;;;6.60;99.90;;;;;;5100940;28;20607;-77
2022/12/07 00:11:04;;;;;;;12.73;10.65;;;6.60;99.90;;;;;;5101215;28;20222;-79
2022/12/07 00:13:32;;;;;;;14.63;12.60;;;6.50;99.90;;;;;;5099465;28;20275;-77
2022/12/07 00:16:01;;;;;;;11.18;9.68;;;6.50;99.90;;;;;;5102301;28;20218;-77
2022/12/07 00:18:28;;;;;;;14.32;11.25;;;6.60;99.90;;;;;;5091534;28;20218;-77
2022/12/07 00:21:03;;;;;;;11.05;9.65;;;6.60;99.90;;;;;;5100692;28;20272;-79
2022/12/07 00:23:30;;;;;;;12.45;11.15;;;6.50;99.90;;;;;;5101438;28;20229;-77
2022/12/07 00:25:57;;;;;;;11.75;8.75;;;6.50;99.90;;;;;;5100714;28;20226;-79
2022/12/07 00:28:26;;;;;;;9.75;8.75;;;6.50;99.90;;;;;;5101667;28;20238;-79
2022/12/07 00:30:52;;;;;;;12.77;10.52;;;6.50;99.90;;;;;;5100962;28;20231;-78
2022/12/07 00:33:19;;;;;;;9.95;8.30;;;6.50;99.90;;;;;;5101358;28;20257;-77
2022/12/07 00:35:47;;;;;;;7.75;6.97;;;6.50;99.90;;;;;;5101727;28;20303;-77
2022/12/07 00:38:14;;;;;;;8.30;7.47;;;6.50;99.90;;;;;;5098877;28;20226;-76
2022/12/07 00:40:41;;;;;;;8.85;7.90;;;6.40;99.90;;;;;;5099837;28;20361;-76
2022/12/07 00:43:14;;;;;;;9.55;8.18;;;6.40;99.90;;;;;;5100618;28;20631;-76
2022/12/07 00:45:42;;;;;;;10.70;8.05;;;6.40;99.90;;;;;;5099399;28;20573;-77
2022/12/07 00:48:11;;;;;;;10.23;7.75;;;6.30;99.90;;;;;;5100218;28;20269;-77
2022/12/07 00:50:38;;;;;;;9.88;8.88;;;6.30;99.90;;;;;;5097685;28;20616;-77
2022/12/07 00:53:05;;;;;;;11.27;8.73;;;6.30;99.90;;;;;;5099556;28;20682;-78
2022/12/07 00:55:34;;;;;;;8.98;8.02;;;6.30;99.90;;;;;;5099496;28;20744;-77
2022/12/07 00:58:01;;;;;;;10.30;7.93;;;6.30;99.90;;;;;;5100883;28;20223;-78
2022/12/07 01:00:28;;;;;;;10.77;9.00;;;6.30;99.90;;;;;;5100837;28;20738;-78
2022/12/07 01:02:56;;;;;;;12.20;8.43;;;6.20;99.90;;;;;;5101225;28;20284;-78
2022/12/07 01:05:23;;;;;;;10.65;8.77;;;6.20;99.90;;;;;;5100346;28;20294;-78
2022/12/07 01:07:50;;;;;;;12.18;9.80;;;6.10;99.90;;;;;;5100613;28;20257;-78
2022/12/07 01:10:17;;;;;;;13.63;9.80;;;6.10;99.90;;;;;;5100400;28;20345;-78
2022/12/07 01:12:44;;;;;;;8.88;7.97;;;6.10;99.90;;;;;;5099844;28;20839;-77
2022/12/07 01:15:11;;;;;;;10.35;8.88;;;6.10;99.90;;;;;;5097240;28;20214;-76
2022/12/07 01:17:38;;;;;;;10.05;8.13;;;6.10;99.90;;;;;;5086269;28;20231;-77
2022/12/07 01:20:08;;;;;;;8.30;7.45;;;6.10;99.90;;;;;;5099008;28;20231;-76
2022/12/07 01:22:37;;;;;;;22.90;16.40;;;6.10;99.90;;;;;;5098982;28;20227;-77
2022/12/07 01:25:05;;;;;;;13.02;9.50;;;6.10;99.90;;;;;;5100069;28;20311;-76
2022/12/07 01:27:33;;;;;;;9.90;7.78;;;6.00;99.90;;;;;;5100955;28;20241;-76
2022/12/07 01:30:00;;;;;;;8.90;8.00;;;6.00;99.90;;;;;;5100488;28;20222;-77
2022/12/07 01:32:27;;;;;;;8.90;7.43;;;6.10;99.90;;;;;;5101663;28;20624;-77
2022/12/07 01:34:54;;;;;;;8.57;7.07;;;6.10;99.90;;;;;;5094074;28;20223;-79
2022/12/07 01:37:23;;;;;;;13.45;7.68;;;6.10;99.90;;;;;;5093136;28;20664;-78
2022/12/07 01:39:50;;;;;;;8.85;7.25;;;6.10;99.90;;;;;;5099886;28;20250;-77
2022/12/07 01:42:20;;;;;;;9.68;8.30;;;6.10;99.90;;;;;;5117421;28;20223;-78
2022/12/07 01:45:32;;;;;;;7.88;7.07;;;6.10;99.90;;;;;;5116662;28;20219;-78
2022/12/07 01:47:59;;;;;;;7.47;6.78;;;6.00;99.90;;;;;;5116237;28;20226;-77
2022/12/07 01:50:31;;;;;;;8.35;7.18;;;6.10;99.90;;;;;;5117390;28;20223;-78
2022/12/07 01:53:03;;;;;;;7.57;6.78;;;6.00;99.90;;;;;;5115493;28;20537;-76
2022/12/07 01:55:30;;;;;;;7.50;6.68;;;6.00;99.90;;;;;;5116549;28;20310;-75
2022/12/07 01:58:03;;;;;;;7.38;6.60;;;6.00;99.90;;;;;;5088331;28;20297;-77
2022/12/07 02:00:30;;;;;;;8.07;6.20;;;6.10;99.90;;;;;;5117882;28;20279;-78
2022/12/07 02:03:02;;;;;;;7.78;6.68;;;6.00;99.90;;;;;;5118112;28;20688;-76
2022/12/07 02:05:33;;;;;;;11.63;9.45;;;6.00;99.90;;;;;;5117029;28;20229;-77
2022/12/07 02:08:01;;;;;;;7.55;6.85;;;6.00;99.90;;;;;;5116727;28;20226;-76
2022/12/07 02:10:30;;;;;;;8.98;7.25;;;6.00;99.90;;;;;;5091674;28;20231;-76
2022/12/07 02:13:01;;;;;;;8.73;7.70;;;6.00;99.90;;;;;;5116680;28;20354;-78
2022/12/07 02:15:34;;;;;;;6.75;5.50;;;6.00;99.90;;;;;;5119786;28;20279;-77
2022/12/07 02:18:11;;;;;;;5.97;5.43;;;6.00;99.90;;;;;;5118745;28;20401;-77
2022/12/07 02:20:48;;;;;;;6.10;5.60;;;6.00;99.90;;;;;;5119021;28;20248;-76
2022/12/07 02:23:51;;;;;;;6.60;5.63;;;6.00;99.90;;;;;;5119675;28;20309;-77
2022/12/07 02:26:50;;;;;;;6.65;5.95;;;5.90;99.90;;;;;;5123289;28;20230;-77
2022/12/07 02:29:25;;;;;;;6.45;5.85;;;5.90;99.90;;;;;;5118766;28;20223;-76
2022/12/07 02:32:02;;;;;;;9.80;6.45;;;5.90;99.90;;;;;;5123900;28;20219;-78
2022/12/07 02:34:37;;;;;;;6.63;5.93;;;5.90;99.90;;;;;;5128431;28;20237;-77
2022/12/07 02:37:13;;;;;;;6.30;5.70;;;5.90;99.90;;;;;;5126722;28;20218;-79
2022/12/07 02:39:45;;;;;;;8.15;6.40;;;5.90;99.90;;;;;;5123189;28;20246;-78
2022/12/07 02:42:18;;;;;;;12.70;8.70;;;5.90;99.90;;;;;;5121948;28;20252;-79
2022/12/07 02:45:02;;;;;;;8.73;6.82;;;5.80;99.90;;;;;;5120655;28;20241;-77
2022/12/07 02:47:32;;;;;;;7.90;7.03;;;5.70;99.90;;;;;;5119279;28;20226;-77
2022/12/07 02:49:59;;;;;;;9.95;8.38;;;5.70;99.90;;;;;;5120886;28;20227;-77
2022/12/07 02:52:26;;;;;;;9.50;6.35;;;5.70;99.90;;;;;;5122279;28;20218;-79
2022/12/07 02:54:53;;;;;;;6.50;5.47;;;5.70;99.90;;;;;;5118482;28;20309;-77
2022/12/07 02:57:37;;;;;;;7.43;6.38;;;5.80;99.90;;;;;;5116409;28;20645;-77
2022/12/07 03:00:08;;;;;;;7.18;6.50;;;5.80;99.90;;;;;;5116223;28;20222;-78
2022/12/07 03:02:49;;;;;;;10.90;8.00;;;5.80;99.90;;;;;;5116185;28;20306;-78
2022/12/07 03:05:49;;;;;;;7.05;6.32;;;5.80;99.90;;;;;;5092660;28;20306;-77
2022/12/07 03:08:22;;;;;;;7.70;6.97;;;5.80;99.90;;;;;;5110593;28;20306;-77
2022/12/07 03:10:57;;;;;;;7.88;7.18;;;5.80;99.90;;;;;;5116583;28;20230;-78
2022/12/07 03:13:31;;;;;;;8.73;7.15;;;5.80;99.90;;;;;;5116694;28;20222;-78
2022/12/07 03:16:06;;;;;;;8.55;5.95;;;5.80;99.90;;;;;;5115800;28;20254;-79
2022/12/07 03:18:38;;;;;;;7.57;6.47;;;5.70;99.90;;;;;;5115392;28;20242;-77
2022/12/07 03:21:11;;;;;;;8.60;7.43;;;5.70;99.90;;;;;;5115678;28;20222;-79
2022/12/07 03:23:42;;;;;;;7.30;6.30;;;5.70;99.90;;;;;;5114859;28;20214;-78
2022/12/07 03:26:13;;;;;;;11.95;8.05;;;5.70;99.90;;;;;;5114812;28;20562;-77
2022/12/07 03:28:45;;;;;;;8.70;7.25;;;5.80;99.90;;;;;;5114570;28;20293;-77
2022/12/07 03:31:17;;;;;;;14.25;9.02;;;5.80;99.90;;;;;;5114729;28;20313;-77
2022/12/07 03:33:50;;;;;;;11.85;8.65;;;5.80;99.90;;;;;;5114347;28;20222;-77
2022/12/07 03:36:24;;;;;;;10.90;8.88;;;5.80;99.90;;;;;;5114416;28;20286;-79
2022/12/07 03:38:58;;;;;;;10.63;8.32;;;5.80;99.90;;;;;;5114229;28;20221;-79
2022/12/07 03:41:28;;;;;;;15.98;10.73;;;5.70;99.90;;;;;;5114102;28;20249;-77
2022/12/07 03:43:56;;;;;;;11.35;9.30;;;5.70;99.90;;;;;;5114141;28;20219;-77
2022/12/07 03:46:34;;;;;;;10.15;8.20;;;5.70;99.90;;;;;;5114604;28;20276;-79
2022/12/07 03:49:09;;;;;;;13.65;9.55;;;5.70;99.90;;;;;;5114518;28;20252;-79
2022/12/07 03:51:41;;;;;;;13.68;9.75;;;5.60;99.90;;;;;;5114324;28;20222;-77
2022/12/07 03:54:12;;;;;;;10.63;9.13;;;5.60;99.90;;;;;;5113937;28;20667;-78
2022/12/07 03:56:43;;;;;;;11.23;9.25;;;5.60;99.90;;;;;;5113827;28;20222;-79
2022/12/07 03:59:10;;;;;;;9.93;8.82;;;5.60;99.90;;;;;;5113427;28;20242;-77
2022/12/07 04:01:39;;;;;;;12.00;9.93;;;5.50;99.90;;;;;;5113022;28;20287;-77
2022/12/07 04:04:06;;;;;;;12.35;10.20;;;5.50;99.90;;;;;;5114288;28;20226;-79
2022/12/07 04:06:38;;;;;;;11.68;8.98;;;5.60;99.90;;;;;;5114194;28;20607;-77
2022/12/07 04:09:05;;;;;;;10.65;9.13;;;5.60;99.90;;;;;;5113542;28;20222;-78
2022/12/07 04:11:32;;;;;;;14.05;9.98;;;5.60;99.90;;;;;;5113816;28;20229;-78
2022/12/07 04:16:45;;;;;;;14.13;10.85;;;5.60;99.90;;;;;;5113595;28;20233;-77
2022/12/07 04:19:12;;;;;;;12.02;9.35;;;5.60;99.90;;;;;;5113417;28;20242;-78
2022/12/07 04:21:40;;;;;;;13.65;10.30;;;5.50;99.90;;;;;;5113773;28;20518;-77
2022/12/07 04:24:07;;;;;;;12.27;9.68;;;5.50;99.90;;;;;;5113108;28;20297;-77
2022/12/07 04:26:34;;;;;;;14.70;12.30;;;5.50;99.90;;;;;;5085417;28;20223;-77
2022/12/07 04:29:01;;;;;;;11.82;9.82;;;5.50;99.90;;;;;;5111927;28;20573;-77
2022/12/07 04:31:28;;;;;;;12.70;9.60;;;5.60;99.90;;;;;;5113755;28;20218;-78
2022/12/07 04:33:58;;;;;;;11.82;10.02;;;5.50;99.90;;;;;;5103987;28;20254;-78
2022/12/07 04:36:37;;;;;;;12.95;10.15;;;5.40;99.90;;;;;;5114745;28;20246;-77
2022/12/07 04:39:12;;;;;;;18.50;12.15;;;5.40;99.90;;;;;;5113583;28;20286;-78
2022/12/07 04:41:39;;;;;;;15.20;11.73;;;5.40;99.90;;;;;;5113401;28;20227;-77
2022/12/07 04:44:07;;;;;;;12.63;11.25;;;5.40;99.90;;;;;;5112839;28;20257;-79
2022/12/07 04:46:34;;;;;;;16.08;12.02;;;5.40;99.90;;;;;;5113703;28;20238;-79
2022/12/07 04:49:08;;;;;;;13.68;11.32;;;5.40;99.90;;;;;;5093000;28;20231;-78
2022/12/07 04:51:37;;;;;;;15.90;12.68;;;5.40;99.90;;;;;;5105816;28;20738;-79
2022/12/07 04:54:04;;;;;;;14.90;11.70;;;5.40;99.90;;;;;;5112895;28;20223;-77
2022/12/07 04:56:32;;;;;;;16.98;13.10;;;5.50;99.90;;;;;;5113614;28;20238;-78
2022/12/07 04:58:59;;;;;;;16.77;12.57;;;5.50;99.90;;;;;;5112946;28;20237;-78
2022/12/07 05:01:26;;;;;;;14.77;12.52;;;5.60;99.90;;;;;;5113207;28;20223;-77
2022/12/07 05:03:54;;;;;;;18.27;12.55;;;5.70;99.90;;;;;;5113885;28;20238;-78
2022/12/07 05:06:22;;;;;;;17.60;13.27;;;5.70;99.90;;;;;;5113205;28;20234;-79
2022/12/07 05:08:49;;;;;;;15.98;12.13;;;5.80;99.90;;;;;;5113625;28;20230;-76
2022/12/07 05:13:58;;;;;;;16.38;14.68;;;5.80;99.90;;;;;;5116996;28;20289;-77
2022/12/07 05:16:25;;;;;;;20.25;14.70;;;5.90;99.90;;;;;;5116096;28;20226;-78
2022/12/07 05:18:52;;;;;;;17.20;14.27;;;6.00;99.90;;;;;;5117945;28;20226;-78
2022/12/07 05:21:22;;;;;;;21.10;14.93;;;6.00;99.90;;;;;;5117151;28;20218;-77
2022/12/07 05:23:51;;;;;;;20.15;14.30;;;6.00;99.90;;;;;;5117199;28;20218;-78
2022/12/07 05:26:18;;;;;;;20.17;15.80;;;6.10;99.90;;;;;;5117388;28;20214;-78
2022/12/07 05:28:51;;;;;;;21.20;15.88;;;6.10;99.90;;;;;;5117790;28;20687;-78
2022/12/07 05:31:21;;;;;;;21.27;15.88;;;6.10;99.90;;;;;;5116520;28;20218;-78
2022/12/07 05:33:49;;;;;;;25.17;18.17;;;6.20;99.90;;;;;;5117484;28;20219;-78
2022/12/07 05:36:15;;;;;;;21.38;15.52;;;6.20;99.90;;;;;;5117268;28;20272;-77
2022/12/07 05:38:43;;;;;;;23.10;15.77;;;6.20;99.90;;;;;;5116561;28;20223;-76
2022/12/07 05:43:56;;;;;;;23.77;16.92;;;6.20;99.90;;;;;;5116422;28;20218;-77
2022/12/07 05:46:23;;;;;;;22.35;17.10;;;6.20;99.90;;;;;;5115407;28;20227;-77
2022/12/07 05:48:50;;;;;;;19.42;15.93;;;6.20;99.90;;;;;;5117641;28;20254;-77
2022/12/07 05:51:18;;;;;;;21.63;16.38;;;6.30;99.90;;;;;;5116878;28;20215;-77
2022/12/07 05:53:45;;;;;;;28.27;19.10;;;6.30;99.90;;;;;;5093881;28;20219;-78
2022/12/07 05:56:13;;;;;;;19.95;15.27;;;6.30;99.90;;;;;;5113892;28;20215;-77
2022/12/07 06:01:24;;;;;;;20.13;15.18;;;6.30;99.90;;;;;;5118241;28;20275;-77
2022/12/07 06:03:55;;;;;;;23.40;17.77;;;6.40;99.90;;;;;;5118137;28;20234;-77
2022/12/07 06:06:22;;;;;;;18.75;15.50;;;6.40;99.90;;;;;;5090385;28;20553;-77
2022/12/07 06:08:49;;;;;;;18.17;15.10;;;6.40;99.90;;;;;;5118974;28;20252;-78
2022/12/07 06:14:01;;;;;;;24.98;17.60;;;6.40;99.90;;;;;;5121443;28;20296;-77
2022/12/07 06:16:28;;;;;;;18.70;14.85;;;6.40;99.90;;;;;;5123010;28;20222;-78
2022/12/07 06:18:55;;;;;;;23.20;16.55;;;6.40;99.90;;;;;;5122789;28;20253;-79
2022/12/07 06:21:26;;;;;;;18.92;14.30;;;6.40;99.90;;;;;;5110024;28;20525;-78
2022/12/07 06:23:53;;;;;;;23.27;16.77;;;6.50;99.90;;;;;;5113760;28;20715;-77
2022/12/07 06:26:22;;;;;;;22.20;16.00;;;6.50;99.90;;;;;;5132069;28;20244;-78
2022/12/07 06:28:50;;;;;;;26.52;17.23;;;6.50;99.90;;;;;;5131422;28;20233;-77
2022/12/07 06:31:17;;;;;;;22.92;15.77;;;6.50;99.90;;;;;;5133367;28;20286;-77
2022/12/07 06:33:45;;;;;;;28.50;19.85;;;6.50;99.90;;;;;;5132351;28;20219;-77
2022/12/07 06:36:12;;;;;;;23.15;16.40;;;6.50;99.90;;;;;;5131417;28;20221;-78
2022/12/07 06:38:41;;;;;;;22.85;15.88;;;6.50;99.90;;;;;;5132067;28;20252;-78
2022/12/07 06:41:08;;;;;;;26.35;18.92;;;6.50;99.90;;;;;;5131258;28;20230;-77
2022/12/07 06:43:36;;;;;;;22.27;16.40;;;6.60;99.90;;;;;;5130067;28;20238;-77
2022/12/07 06:46:03;;;;;;;28.33;15.55;;;6.60;99.90;;;;;;5129803;28;20222;-76
2022/12/07 06:48:30;;;;;;;23.67;15.07;;;6.60;99.90;;;;;;5133202;28;20227;-76
2022/12/07 06:50:57;;;;;;;19.60;15.55;;;6.60;99.90;;;;;;5129807;28;20249;-77
2022/12/07 06:53:24;;;;;;;20.73;15.32;;;6.60;99.90;;;;;;5127992;28;20242;-77
2022/12/07 06:55:51;;;;;;;18.83;14.88;;;6.60;99.90;;;;;;5130990;28;20260;-77
2022/12/07 06:58:19;;;;;;;22.67;14.63;;;6.60;99.90;;;;;;5125719;28;20239;-77
2022/12/07 07:00:49;;;;;;;19.88;14.68;;;6.60;99.90;;;;;;5124650;28;20227;-77
2022/12/07 07:03:16;;;;;;;24.92;17.55;;;6.70;99.90;;;;;;5123796;28;20218;-76
2022/12/07 07:05:44;;;;;;;23.42;18.98;;;6.70;99.90;;;;;;5120378;28;20305;-77
2022/12/07 07:08:11;;;;;;;22.20;17.35;;;6.70;99.90;;;;;;5117439;28;20219;-77
2022/12/07 07:10:39;;;;;;;21.30;16.50;;;6.70;99.90;;;;;;5117231;28;20619;-77
2022/12/07 07:13:06;;;;;;;22.52;18.13;;;6.70;99.90;;;;;;5115510;28;20606;-78
2022/12/07 07:15:34;;;;;;;28.15;20.10;;;6.70;99.90;;;;;;5115412;28;20226;-77
2022/12/07 07:18:03;;;;;;;24.35;17.77;;;6.70;99.90;;;;;;5114208;28;20219;-77
2022/12/07 07:20:31;;;;;;;35.17;24.10;;;6.80;99.90;;;;;;5085884;28;20526;-77
2022/12/07 07:22:58;;;;;;;22.40;17.45;;;6.80;99.90;;;;;;5114488;28;20265;-77
2022/12/07 07:25:25;;;;;;;22.50;16.77;;;6.80;99.90;;;;;;5115795;28;20606;-76
2022/12/07 07:27:52;;;;;;;21.73;15.77;;;6.80;99.90;;;;;;5114325;28;20279;-76
2022/12/07 07:30:19;;;;;;;24.58;17.00;;;6.80;99.90;;;;;;5114834;28;20227;-77
2022/12/07 07:32:46;;;;;;;23.38;16.70;;;6.80;99.90;;;;;;5114152;28;20229;-78
2022/12/07 07:35:15;;;;;;;23.60;17.27;;;6.80;99.90;;;;;;5115242;28;20320;-78
2022/12/07 07:37:43;;;;;;;19.25;13.05;;;6.80;99.90;;;;;;5114484;28;20239;-76
2022/12/07 07:40:11;;;;;;;18.77;14.48;;;6.80;99.90;;;;;;5113865;28;20233;-76
2022/12/07 07:42:40;;;;;;;16.85;14.13;;;6.90;99.90;;;;;;5113863;28;20254;-78
2022/12/07 07:45:09;;;;;;;25.92;17.45;;;6.90;99.90;;;;;;5115430;28;20226;-76
2022/12/07 07:47:36;;;;;;;16.75;13.18;;;6.90;99.90;;;;;;5105398;28;20611;-77
2022/12/07 07:50:03;;;;;;;20.98;14.70;;;6.80;99.90;;;;;;5116159;28;20230;-76
2022/12/07 07:52:44;;;;;;;15.57;11.45;;;6.80;99.90;;;;;;5115192;28;20549;-78
2022/12/07 07:55:11;;;;;;;15.18;10.63;;;6.90;99.90;;;;;;5115905;28;20214;-78
2022/12/07 07:57:40;;;;;;;18.27;12.65;;;6.90;99.90;;;;;;5114259;28;20568;-77
2022/12/07 08:00:10;;;;;;;14.75;11.77;;;6.90;99.90;;;;;;5114671;28;20222;-78
2022/12/07 08:02:39;;;;;;;12.30;10.15;;;6.80;99.90;;;;;;5114619;28;20669;-77
2022/12/07 08:05:11;;;;;;;15.65;11.70;;;6.90;99.90;;;;;;5115191;28;20283;-77
2022/12/07 08:07:40;;;;;;;11.35;9.23;;;6.90;99.90;;;;;;5114048;28;20229;-77
2022/12/07 08:10:11;;;;;;;20.42;13.82;;;6.90;99.90;;;;;;5114425;28;20242;-78
2022/12/07 08:13:10;;;;;;;19.65;15.95;;;6.90;99.90;;;;;;5114921;28;20546;-78
2022/12/07 08:15:27;;;;;;;14.73;10.55;;;6.80;99.90;;;;;;5115314;28;20230;-79
2022/12/07 08:17:54;;;;;;;14.05;10.73;;;6.80;99.90;;;;;;5115303;28;20226;-78
2022/12/07 08:20:23;;;;;;;14.75;10.10;;;6.90;99.90;;;;;;5114718;28;20254;-79
2022/12/07 08:22:51;;;;;;;13.70;10.13;;;6.80;99.90;;;;;;5115147;28;20222;-78
2022/12/07 08:25:19;;;;;;;12.68;8.02;;;6.80;99.90;;;;;;5114343;28;20230;-78
2022/12/07 08:27:46;;;;;;;9.75;8.15;;;6.80;99.90;;;;;;5114592;28;20223;-79
2022/12/07 08:30:14;;;;;;;12.02;9.02;;;6.80;99.90;;;;;;5114515;28;20291;-78
2022/12/07 08:32:41;;;;;;;10.02;7.63;;;6.80;99.90;;;;;;5113532;28;20215;-79
2022/12/07 08:35:09;;;;;;;12.38;6.93;;;6.90;99.90;;;;;;5114359;28;20246;-78
2022/12/07 08:37:36;;;;;;;7.00;6.05;;;6.90;99.90;;;;;;5114235;28;20268;-79
2022/12/07 08:40:06;;;;;;;8.80;5.85;;;7.00;99.90;;;;;;5114852;28;20279;-78
2022/12/07 08:42:39;;;;;;;7.30;6.07;;;6.90;99.90;;;;;;5093737;28;20219;-80
2022/12/07 08:45:08;;;;;;;8.90;6.00;;;7.00;99.90;;;;;;5094311;28;20215;-79
2022/12/07 08:47:36;;;;;;;7.53;6.72;;;7.00;99.90;;;;;;5093828;28;20608;-79
2022/12/07 08:50:04;;;;;;;6.97;5.80;;;7.00;99.90;;;;;;5094499;28;20242;-79
2022/12/07 08:52:33;;;;;;;5.78;5.28;;;7.00;99.90;;;;;;5095015;28;20219;-78
2022/12/07 08:55:01;;;;;;;6.15;5.55;;;7.00;99.90;;;;;;5095992;28;20570;-78
2022/12/07 08:57:29;;;;;;;5.00;4.60;;;7.00;99.90;;;;;;5095333;28;20614;-78
2022/12/07 08:59:57;;;;;;;7.43;6.43;;;7.00;99.90;;;;;;5097748;28;20635;-78
2022/12/07 09:02:25;;;;;;;7.43;4.88;;;7.10;99.90;;;;;;5098651;28;20518;-78
2022/12/07 09:04:52;;;;;;;5.72;4.05;;;7.10;99.90;;;;;;5101611;28;20223;-79
2022/12/07 09:07:19;;;;;;;5.45;4.35;;;7.10;99.90;;;;;;5096098;28;20238;-76
2022/12/07 09:09:46;;;;;;;4.15;3.75;;;7.00;99.90;;;;;;5093977;28;20314;-76
2022/12/07 09:12:13;;;;;;;4.15;3.78;;;7.00;99.90;;;;;;5099151;28;20917;-78
2022/12/07 09:14:42;;;;;;;7.85;3.90;;;7.10;99.90;;;;;;5106158;28;20320;-78
2022/12/07 09:17:10;;;;;;;4.25;3.78;;;7.00;99.90;;;;;;5105875;28;20247;-78
2022/12/07 09:19:43;;;;;;;6.50;4.45;;;7.00;99.90;;;;;;5098656;28;20245;-79
2022/12/07 09:22:15;;;;;;;6.28;5.00;;;7.00;99.90;;;;;;5097992;28;20318;-78
2022/12/07 09:24:52;;;;;;;3.78;3.20;;;7.00;99.90;;;;;;5105807;28;20219;-78
2022/12/07 09:27:26;;;;;;;4.95;4.55;;;6.90;99.90;;;;;;5104464;28;20227;-78
2022/12/07 09:29:55;;;;;;;3.55;3.25;;;6.90;99.90;;;;;;5106010;28;20314;-78
2022/12/07 09:32:26;;;;;;;5.30;2.85;;;6.90;99.90;;;;;;5098379;28;20718;-79
2022/12/07 09:34:53;;;;;;;5.75;5.05;;;6.90;99.90;;;;;;5097034;28;20223;-78
2022/12/07 09:37:21;;;;;;;4.30;3.90;;;6.90;99.90;;;;;;5104349;28;20220;-78
2022/12/07 09:39:48;;;;;;;4.10;3.70;;;6.90;99.90;;;;;;5108195;28;20228;-77
2022/12/07 09:42:28;;;;;;;4.28;3.03;;;6.90;99.90;;;;;;5116665;28;20238;-77
2022/12/07 09:44:58;;;;;;;3.90;3.60;;;6.90;99.90;;;;;;5087996;28;20259;-76
2022/12/07 09:47:26;;;;;;;3.47;3.17;;;6.90;99.90;;;;;;5117510;28;20652;-79
2022/12/07 09:50:00;;;;;;;3.75;3.38;;;6.90;99.90;;;;;;5126234;28;20254;-78
2022/12/07 09:52:30;;;;;;;4.45;4.05;;;6.90;99.90;;;;;;5120812;28;20229;-79
2022/12/07 09:54:57;;;;;;;3.40;3.10;;;6.90;99.90;;;;;;5113898;28;20310;-78
2022/12/07 09:57:31;;;;;;;4.40;3.95;;;6.90;99.90;;;;;;5115218;28;20290;-78
2022/12/07 10:00:18;;;;;;;3.85;3.30;;;6.90;99.90;;;;;;5116425;28;20306;-78
2022/12/07 10:02:52;;;;;;;3.97;3.63;;;6.90;99.90;;;;;;5117176;28;20225;-78
2022/12/07 10:05:23;;;;;;;4.20;3.78;;;6.90;99.90;;;;;;5117751;28;20285;-78
2022/12/07 10:07:50;;;;;;;5.53;4.38;;;6.90;99.90;;;;;;5118275;28;20615;-77
2022/12/07 10:10:28;;;;;;;4.72;3.78;;;6.80;99.90;;;;;;5117580;28;20230;-77
2022/12/07 10:12:58;;;;;;;5.15;4.65;;;6.80;99.90;;;;;;5107451;28;20222;-77
2022/12/07 10:15:43;;;;;;;3.60;3.30;;;6.80;99.90;;;;;;5117273;28;20234;-78
2022/12/07 10:18:29;;;;;;;5.85;4.93;;;6.70;99.90;;;;;;5116720;28;20218;-78
2022/12/07 10:21:12;;;;;;;5.63;3.28;;;6.80;99.90;;;;;;5116178;28;20328;-78
2022/12/07 10:23:41;;;;;;;4.53;3.78;;;6.70;99.90;;;;;;5116716;28;20222;-77
2022/12/07 10:26:30;;;;;;;4.13;3.75;;;6.70;99.90;;;;;;5115796;28;20655;-76
2022/12/07 10:29:02;;;;;;;3.20;2.80;;;6.70;99.90;;;;;;5115407;28;20284;-78
2022/12/07 10:31:31;;;;;;;4.15;2.97;;;6.70;99.90;;;;;;5116718;28;20254;-77
2022/12/07 10:34:00;;;;;;;4.03;3.67;;;6.70;99.90;;;;;;5115329;28;20577;-78
2022/12/07 10:36:35;;;;;;;6.25;3.42;;;6.70;99.90;;;;;;5116452;28;20245;-78
2022/12/07 10:39:05;;;;;;;3.50;2.97;;;6.80;99.90;;;;;;5115982;28;20224;-77
2022/12/07 10:41:32;;;;;;;4.25;3.63;;;6.80;99.90;;;;;;5101523;28;20223;-77
2022/12/07 10:43:59;;;;;;;4.78;3.95;;;6.80;99.90;;;;;;5115833;28;20227;-79
2022/12/07 10:47:01;;;;;;;7.25;5.55;;;6.80;99.90;;;;;;5116207;28;20226;-77
2022/12/07 10:50:02;;;;;;;4.70;4.30;;;6.80;99.90;;;;;;5114682;28;20718;-77
2022/12/07 10:52:53;;;;;;;4.80;4.00;;;6.80;99.90;;;;;;5109769;28;20226;-79
2022/12/07 10:55:26;;;;;;;7.72;4.35;;;6.80;99.90;;;;;;5115510;28;20222;-79
2022/12/07 10:58:08;;;;;;;3.65;3.35;;;6.80;99.90;;;;;;5100671;28;20277;-79
2022/12/07 11:00:42;;;;;;;5.20;4.70;;;6.80;99.90;;;;;;5102369;28;20223;-77
2022/12/07 11:03:39;;;;;;;4.35;3.95;;;6.80;99.90;;;;;;5103278;28;20692;-77
2022/12/07 11:06:19;;;;;;;4.82;3.67;;;6.80;99.90;;;;;;5082746;28;20343;-77
2022/12/07 11:09:02;;;;;;;6.55;4.03;;;6.80;99.90;;;;;;5115132;28;20226;-79
2022/12/07 11:11:35;;;;;;;5.20;4.80;;;6.90;99.90;;;;;;5104404;28;20214;-77
2022/12/07 11:14:16;;;;;;;5.07;3.92;;;6.90;99.90;;;;;;5115485;28;20242;-78
2022/12/07 11:16:52;;;;;;;4.32;3.95;;;6.90;99.90;;;;;;5116542;28;20214;-78
2022/12/07 11:19:51;;;;;;;5.82;4.18;;;6.90;99.90;;;;;;5115701;28;20238;-78
2022/12/07 11:22:21;;;;;;;6.38;5.00;;;6.90;99.90;;;;;;5115318;28;20241;-78
2022/12/07 11:24:55;;;;;;;4.10;3.80;;;6.90;99.90;;;;;;5115679;28;20233;-78
2022/12/07 11:27:30;;;;;;;5.05;4.38;;;6.90;99.90;;;;;;5115349;28;20597;-78
2022/12/07 11:30:10;;;;;;;5.85;5.00;;;6.90;99.90;;;;;;5115751;28;20295;-78
2022/12/07 11:32:58;;;;;;;4.88;4.38;;;6.90;99.90;;;;;;5115909;28;20214;-78
2022/12/07 11:35:37;;;;;;;4.00;3.63;;;6.90;99.90;;;;;;5103700;28;20222;-78
2022/12/07 11:38:14;;;;;;;4.60;4.20;;;6.90;99.90;;;;;;5114569;28;20660;-78
2022/12/07 11:40:44;;;;;;;7.10;4.43;;;6.90;99.90;;;;;;5114455;28;20234;-79
2022/12/07 11:43:24;;;;;;;5.35;4.80;;;6.90;99.90;;;;;;5115820;28;20509;-76
2022/12/07 11:46:00;;;;;;;9.55;8.65;;;6.80;99.90;;;;;;5115008;28;20218;-76
2022/12/07 11:48:34;;;;;;;8.07;7.28;;;6.80;99.90;;;;;;5115892;28;20222;-78
2022/12/07 11:51:05;;;;;;;8.93;6.45;;;6.90;99.90;;;;;;5115624;28;20245;-79
2022/12/07 11:53:38;;;;;;;4.80;4.32;;;6.90;99.90;;;;;;5115529;28;20306;-78
2022/12/07 11:56:12;;;;;;;5.90;5.03;;;7.00;99.90;;;;;;5115096;28;20340;-78
2022/12/07 11:58:49;;;;;;;7.20;6.53;;;7.00;99.90;;;;;;5115211;28;20303;-78
2022/12/07 12:01:32;;;;;;;8.38;6.90;;;7.00;99.90;;;;;;5115779;28;20215;-78
2022/12/07 12:04:06;;;;;;;5.38;4.82;;;7.00;99.90;;;;;;5115851;28;20384;-78
2022/12/07 12:06:35;;;;;;;5.60;5.10;;;7.10;99.90;;;;;;5114386;28;20222;-78
2022/12/07 12:09:12;;;;;;;5.88;4.63;;;7.10;99.90;;;;;;5114890;28;20226;-78
2022/12/07 12:12:02;;;;;;;8.02;5.88;;;7.10;99.90;;;;;;5114611;28;20218;-78
2022/12/07 12:14:43;;;;;;;8.70;5.47;;;7.10;99.90;;;;;;5112977;28;20231;-79
2022/12/07 12:17:39;;;;;;;5.40;4.88;;;7.10;99.90;;;;;;5114940;28;20222;-78
2022/12/07 12:20:19;;;;;;;8.80;5.30;;;7.20;99.90;;;;;;5060492;28;20229;-77
2022/12/07 12:22:51;;;;;;;5.25;4.47;;;7.20;99.90;;;;;;5114476;28;20226;-77
2022/12/07 12:25:25;;;;;;;4.68;4.05;;;7.20;99.90;;;;;;5113540;28;21100;-76
2022/12/07 12:27:55;;;;;;;5.28;4.78;;;7.30;99.90;;;;;;5114594;28;20221;-77
2022/12/07 12:30:31;;;;;;;4.65;3.83;;;7.30;99.90;;;;;;5113297;28;20218;-77
2022/12/07 12:33:13;;;;;;;6.28;4.07;;;7.40;99.90;;;;;;5113175;28;20234;-76
2022/12/07 12:35:43;;;;;;;4.90;4.35;;;7.30;99.90;;;;;;5103994;28;20234;-78
2022/12/07 12:38:33;;;;;;;4.45;3.83;;;7.40;99.90;;;;;;5113079;28;20271;-77
2022/12/07 12:41:01;;;;;;;5.38;3.92;;;7.40;99.90;;;;;;5113705;28;20576;-79
2022/12/07 12:43:52;;;;;;;4.25;3.53;;;7.40;99.90;;;;;;5114274;28;20227;-78
2022/12/07 12:46:47;;;;;;;4.20;3.10;;;7.40;99.90;;;;;;5114521;28;20241;-79
2022/12/07 12:50:12;;;;;;;8.45;3.70;;;7.50;99.90;;;;;;5112922;28;20230;-79
2022/12/07 12:52:59;;;;;;;4.50;2.63;;;7.40;99.90;;;;;;5113857;28;20566;-77
2022/12/07 12:56:08;;;;;;;4.15;3.03;;;7.50;99.90;;;;;;5113582;28;20226;-76
2022/12/07 12:58:43;;;;;;;2.92;2.72;;;7.50;99.90;;;;;;5113593;28;20705;-76
2022/12/07 13:01:53;;;;;;;5.13;2.88;;;7.50;99.90;;;;;;5113926;28;20236;-76
2022/12/07 13:04:43;;;;;;;5.55;3.25;;;7.40;99.90;;;;;;5114634;28;20720;-78
2022/12/07 13:07:34;;;;;;;5.45;3.10;;;7.40;99.90;;;;;;5110841;28;20245;-78
2022/12/07 13:10:04;;;;;;;6.00;3.03;;;7.40;99.90;;;;;;5114606;28;20304;-78
2022/12/07 13:12:32;;;;;;;6.78;3.53;;;7.40;99.90;;;;;;5116284;28;20248;-79
2022/12/07 13:15:02;;;;;;;3.75;3.20;;;7.40;99.90;;;;;;5117411;28;20240;-78
2022/12/07 13:18:00;;;;;;;6.93;3.40;;;7.40;99.90;;;;;;5113908;28;20236;-77
2022/12/07 13:20:53;;;;;;;5.53;3.80;;;7.40;99.90;;;;;;5121362;28;20219;-79
2022/12/07 13:23:29;;;;;;;14.55;6.97;;;7.40;99.90;;;;;;5123680;28;20218;-80
2022/12/07 13:26:03;;;;;;;7.25;4.65;;;7.40;99.90;;;;;;5126222;28;20218;-79
2022/12/07 13:28:38;;;;;;;5.72;3.75;;;7.40;99.90;;;;;;5120389;28;20257;-76